sensor_id;sensor_type;location;lat;lon;timestamp;temperature;humidity
15969;DHT22;8085;53.472;9.794;2023-05-15T00:01:36;12.50;99.90
15969;DHT22;8085;53.472;9.794;2023-05-15T00:04:03;12.50;99.90
15969;DHT22;8085;53.472;9.794;2023-05-15T00:06:30;12.40;99.90
15969;DHT22;8085;53.472;9.794;2023-05-15T00:08:58;12.30;99.90
15969;DHT22;8085;53.472;9.794;2023-05-15T00:11:25;12.30;99.90
15969;DHT22;8085;53.472;9.794;2023-05-15T00:13:52;12.30;99.90
15969;DHT22;8085;53.472;9.794;2023-05-15T00:16:19;12.30;99.90
15969;DHT22;8085;53.472;9.794;2023-05-15T00:18:46;12.20;99.90
15969;DHT22;8085;53.472;9.794;2023-05-15T00:21:13;12.20;99.90
15969;DHT22;8085;53.472;9.794;2023-05-15T00:23:41;12.20;99.90
15969;DHT22;8085;53.472;9.794;2023-05-15T00:26:09;12.20;99.90
15969;DHT22;8085;53.472;9.794;2023-05-15T00:28:40;12.10;99.90
15969;DHT22;8085;53.472;9.794;2023-05-15T00:31:07;12.20;99.90
15969;DHT22;8085;53.472;9.794;2023-05-15T00:33:34;12.10;99.90
15969;DHT22;8085;53.472;9.794;2023-05-15T00:36:01;12.10;99.90
15969;DHT22;8085;53.472;9.794;2023-05-15T00:38:28;12.00;99.90
15969;DHT22;8085;53.472;9.794;2023-05-15T00:40:55;12.00;99.90
15969;DHT22;8085;53.472;9.794;2023-05-15T00:43:25;11.90;99.90
15969;DHT22;8085;53.472;9.794;2023-05-15T00:45:52;12.00;99.90
15969;DHT22;8085;53.472;9.794;2023-05-15T00:48:20;11.90;99.90
15969;DHT22;8085;53.472;9.794;2023-05-15T00:50:49;11.80;99.90
15969;DHT22;8085;53.472;9.794;2023-05-15T00:53:16;11.70;99.90
15969;DHT22;8085;53.472;9.794;2023-05-15T00:55:44;11.70;99.90
15969;DHT22;8085;53.472;9.794;2023-05-15T00:58:12;11.60;99.90
15969;DHT22;8085;53.472;9.794;2023-05-15T01:00:42;11.60;99.90
15969;DHT22;8085;53.472;9.794;2023-05-15T01:03:09;11.60;99.90
15969;DHT22;8085;53.472;9.794;2023-05-15T01:05:35;11.60;99.90
15969;DHT22;8085;53.472;9.794;2023-05-15T01:08:07;11.60;99.90
15969;DHT22;8085;53.472;9.794;2023-05-15T01:10:38;11.60;99.90
15969;DHT22;8085;53.472;9.794;2023-05-15T01:13:08;11.50;99.90
15969;DHT22;8085;53.472;9.794;2023-05-15T01:15:35;11.50;99.90
15969;DHT22;8085;53.472;9.794;2023-05-15T01:18:04;11.40;99.90
15969;DHT22;8085;53.472;9.794;2023-05-15T01:20:36;11.40;99.90
15969;DHT22;8085;53.472;9.794;2023-05-15T01:23:13;11.30;99.90
15969;DHT22;8085;53.472;9.794;2023-05-15T01:26:23;11.40;99.90
15969;DHT22;8085;53.472;9.794;2023-05-15T01:28:59;11.30;99.90
15969;DHT22;8085;53.472;9.794;2023-05-15T01:31:30;11.30;99.90
15969;DHT22;8085;53.472;9.794;2023-05-15T01:34:02;11.40;99.90
15969;DHT22;8085;53.472;9.794;2023-05-15T01:36:33;11.30;99.90
15969;DHT22;8085;53.472;9.794;2023-05-15T01:39:02;11.30;99.90
15969;DHT22;8085;53.472;9.794;2023-05-15T01:41:33;11.30;99.90
15969;DHT22;8085;53.472;9.794;2023-05-15T01:44:05;11.20;99.90
15969;DHT22;8085;53.472;9.794;2023-05-15T01:46:35;11.10;99.90
15969;DHT22;8085;53.472;9.794;2023-05-15T01:49:03;11.10;99.90
15969;DHT22;8085;53.472;9.794;2023-05-15T01:51:35;11.00;99.90
15969;DHT22;8085;53.472;9.794;2023-05-15T01:54:04;10.90;99.90
15969;DHT22;8085;53.472;9.794;2023-05-15T01:56:32;10.90;99.90
15969;DHT22;8085;53.472;9.794;2023-05-15T01:59:03;10.90;99.90
15969;DHT22;8085;53.472;9.794;2023-05-15T02:01:31;10.90;99.90
15969;DHT22;8085;53.472;9.794;2023-05-15T02:03:59;10.80;99.90
15969;DHT22;8085;53.472;9.794;2023-05-15T02:06:27;10.80;99.90
15969;DHT22;8085;53.472;9.794;2023-05-15T02:08:56;10.70;99.90
15969;DHT22;8085;53.472;9.794;2023-05-15T02:11:24;10.60;99.90
15969;DHT22;8085;53.472;9.794;2023-05-15T02:13:51;10.60;99.90
15969;DHT22;8085;53.472;9.794;2023-05-15T02:16:20;10.60;99.90
15969;DHT22;8085;53.472;9.794;2023-05-15T02:18:47;10.60;99.90
15969;DHT22;8085;53.472;9.794;2023-05-15T02:21:15;10.60;99.90
15969;DHT22;8085;53.472;9.794;2023-05-15T02:23:42;10.60;99.90
15969;DHT22;8085;53.472;9.794;2023-05-15T02:26:18;10.60;99.90
15969;DHT22;8085;53.472;9.794;2023-05-15T02:28:50;10.50;99.90
15969;DHT22;8085;53.472;9.794;2023-05-15T02:31:28;10.50;99.90
15969;DHT22;8085;53.472;9.794;2023-05-15T02:34:04;10.50;99.90
15969;DHT22;8085;53.472;9.794;2023-05-15T02:36:38;10.50;99.90
15969;DHT22;8085;53.472;9.794;2023-05-15T02:39:07;10.50;99.90
15969;DHT22;8085;53.472;9.794;2023-05-15T02:41:36;10.50;99.90
15969;DHT22;8085;53.472;9.794;2023-05-15T02:44:04;10.40;99.90
15969;DHT22;8085;53.472;9.794;2023-05-15T02:46:33;10.40;99.90
15969;DHT22;8085;53.472;9.794;2023-05-15T02:49:01;10.30;99.90
15969;DHT22;8085;53.472;9.794;2023-05-15T02:51:31;10.30;99.90
15969;DHT22;8085;53.472;9.794;2023-05-15T02:53:59;10.30;99.90
15969;DHT22;8085;53.472;9.794;2023-05-15T02:56:26;10.20;99.90
15969;DHT22;8085;53.472;9.794;2023-05-15T02:58:53;10.30;99.90
15969;DHT22;8085;53.472;9.794;2023-05-15T03:01:21;10.20;99.90
15969;DHT22;8085;53.472;9.794;2023-05-15T03:03:49;10.20;99.90
15969;DHT22;8085;53.472;9.794;2023-05-15T03:06:17;10.20;99.90
15969;DHT22;8085;53.472;9.794;2023-05-15T03:08:44;10.30;99.90
15969;DHT22;8085;53.472;9.794;2023-05-15T03:11:11;10.30;99.90
15969;DHT22;8085;53.472;9.794;2023-05-15T03:13:38;10.20;99.90
15969;DHT22;8085;53.472;9.794;2023-05-15T03:16:05;10.20;99.90
15969;DHT22;8085;53.472;9.794;2023-05-15T03:18:32;10.20;99.90
15969;DHT22;8085;53.472;9.794;2023-05-15T03:21:00;10.10;99.90
15969;DHT22;8085;53.472;9.794;2023-05-15T03:23:27;10.10;99.90
15969;DHT22;8085;53.472;9.794;2023-05-15T03:25:55;10.00;99.90
15969;DHT22;8085;53.472;9.794;2023-05-15T03:28:22;10.00;99.90
15969;DHT22;8085;53.472;9.794;2023-05-15T03:30:49;10.00;99.90
15969;DHT22;8085;53.472;9.794;2023-05-15T03:33:16;10.00;99.90
15969;DHT22;8085;53.472;9.794;2023-05-15T03:35:43;10.10;99.90
15969;DHT22;8085;53.472;9.794;2023-05-15T03:38:12;10.10;99.90
15969;DHT22;8085;53.472;9.794;2023-05-15T03:40:38;10.10;99.90
15969;DHT22;8085;53.472;9.794;2023-05-15T03:43:05;10.10;99.90
15969;DHT22;8085;53.472;9.794;2023-05-15T03:45:32;10.00;99.90
15969;DHT22;8085;53.472;9.794;2023-05-15T03:48:00;10.00;99.90
15969;DHT22;8085;53.472;9.794;2023-05-15T03:50:27;10.00;99.90
15969;DHT22;8085;53.472;9.794;2023-05-15T03:53:02;10.00;99.90
15969;DHT22;8085;53.472;9.794;2023-05-15T03:55:30;10.00;99.90
15969;DHT22;8085;53.472;9.794;2023-05-15T03:57:57;9.90;99.90
15969;DHT22;8085;53.472;9.794;2023-05-15T04:00:24;9.90;99.90
15969;DHT22;8085;53.472;9.794;2023-05-15T04:02:52;9.90;99.90
15969;DHT22;8085;53.472;9.794;2023-05-15T04:05:19;9.90;99.90
15969;DHT22;8085;53.472;9.794;2023-05-15T04:07:46;9.90;99.90
15969;DHT22;8085;53.472;9.794;2023-05-15T04:10:13;9.80;99.90
15969;DHT22;8085;53.472;9.794;2023-05-15T04:12:41;9.90;99.90
15969;DHT22;8085;53.472;9.794;2023-05-15T04:15:16;9.90;99.90
15969;DHT22;8085;53.472;9.794;2023-05-15T04:17:45;9.90;99.90
15969;DHT22;8085;53.472;9.794;2023-05-15T04:20:13;10.00;99.90
15969;DHT22;8085;53.472;9.794;2023-05-15T04:22:41;10.00;99.90
15969;DHT22;8085;53.472;9.794;2023-05-15T04:25:09;10.10;99.90
15969;DHT22;8085;53.472;9.794;2023-05-15T04:27:36;10.10;99.90
15969;DHT22;8085;53.472;9.794;2023-05-15T04:30:06;10.20;99.90
15969;DHT22;8085;53.472;9.794;2023-05-15T04:32:34;10.40;99.90
15969;DHT22;8085;53.472;9.794;2023-05-15T04:35:02;10.50;99.90
15969;DHT22;8085;53.472;9.794;2023-05-15T04:37:31;10.60;99.90
15969;DHT22;8085;53.472;9.794;2023-05-15T04:39:58;10.70;99.90
15969;DHT22;8085;53.472;9.794;2023-05-15T04:42:25;11.00;99.90
15969;DHT22;8085;53.472;9.794;2023-05-15T04:44:52;11.70;99.90
15969;DHT22;8085;53.472;9.794;2023-05-15T04:47:20;12.60;99.90
15969;DHT22;8085;53.472;9.794;2023-05-15T04:49:47;13.50;23.60
15969;DHT22;8085;53.472;9.794;2023-05-15T04:52:14;14.20;1.00
15969;DHT22;8085;53.472;9.794;2023-05-15T04:54:41;14.90;1.00
15969;DHT22;8085;53.472;9.794;2023-05-15T04:57:08;15.60;1.00
15969;DHT22;8085;53.472;9.794;2023-05-15T04:59:35;16.10;1.00
15969;DHT22;8085;53.472;9.794;2023-05-15T05:02:02;16.30;35.90
15969;DHT22;8085;53.472;9.794;2023-05-15T05:04:30;16.40;1.00
15969;DHT22;8085;53.472;9.794;2023-05-15T05:06:57;16.10;1.00
15969;DHT22;8085;53.472;9.794;2023-05-15T05:09:24;16.00;99.90
15969;DHT22;8085;53.472;9.794;2023-05-15T05:11:51;15.50;99.90
15969;DHT22;8085;53.472;9.794;2023-05-15T05:14:18;14.80;1.00
15969;DHT22;8085;53.472;9.794;2023-05-15T05:16:45;14.10;1.00
15969;DHT22;8085;53.472;9.794;2023-05-15T05:19:19;13.70;1.00
15969;DHT22;8085;53.472;9.794;2023-05-15T05:21:48;13.40;1.00
15969;DHT22;8085;53.472;9.794;2023-05-15T05:24:15;13.30;1.00
15969;DHT22;8085;53.472;9.794;2023-05-15T05:26:42;13.10;1.00
15969;DHT22;8085;53.472;9.794;2023-05-15T05:29:10;13.20;1.00
15969;DHT22;8085;53.472;9.794;2023-05-15T05:31:37;13.20;1.00
15969;DHT22;8085;53.472;9.794;2023-05-15T05:34:04;13.40;1.00
15969;DHT22;8085;53.472;9.794;2023-05-15T05:36:33;13.40;1.00
15969;DHT22;8085;53.472;9.794;2023-05-15T05:39:02;13.70;1.00
15969;DHT22;8085;53.472;9.794;2023-05-15T05:41:30;13.80;1.00
15969;DHT22;8085;53.472;9.794;2023-05-15T05:43:57;13.90;1.00
15969;DHT22;8085;53.472;9.794;2023-05-15T05:46:24;14.00;1.00
15969;DHT22;8085;53.472;9.794;2023-05-15T05:48:51;14.10;1.00
15969;DHT22;8085;53.472;9.794;2023-05-15T05:51:18;14.30;1.00
15969;DHT22;8085;53.472;9.794;2023-05-15T05:53:45;14.50;1.00
15969;DHT22;8085;53.472;9.794;2023-05-15T05:56:13;14.70;1.00
15969;DHT22;8085;53.472;9.794;2023-05-15T05:58:41;14.90;1.00
15969;DHT22;8085;53.472;9.794;2023-05-15T06:01:12;15.00;1.00
15969;DHT22;8085;53.472;9.794;2023-05-15T06:03:38;15.10;1.00
15969;DHT22;8085;53.472;9.794;2023-05-15T06:06:11;15.10;1.00
15969;DHT22;8085;53.472;9.794;2023-05-15T06:08:38;15.10;1.00
15969;DHT22;8085;53.472;9.794;2023-05-15T06:11:05;15.10;1.00
15969;DHT22;8085;53.472;9.794;2023-05-15T06:13:44;15.20;1.00
15969;DHT22;8085;53.472;9.794;2023-05-15T06:16:10;15.30;1.00
15969;DHT22;8085;53.472;9.794;2023-05-15T06:18:37;15.40;1.00
15969;DHT22;8085;53.472;9.794;2023-05-15T06:21:04;15.40;1.00
15969;DHT22;8085;53.472;9.794;2023-05-15T06:23:31;15.40;1.00
15969;DHT22;8085;53.472;9.794;2023-05-15T06:25:58;15.40;1.00
15969;DHT22;8085;53.472;9.794;2023-05-15T06:28:26;15.40;1.00
15969;DHT22;8085;53.472;9.794;2023-05-15T06:30:54;15.50;1.00
15969;DHT22;8085;53.472;9.794;2023-05-15T06:33:37;15.60;1.00
15969;DHT22;8085;53.472;9.794;2023-05-15T06:36:04;15.70;1.00
15969;DHT22;8085;53.472;9.794;2023-05-15T06:38:31;15.70;1.00
15969;DHT22;8085;53.472;9.794;2023-05-15T06:40:58;15.80;1.00
15969;DHT22;8085;53.472;9.794;2023-05-15T06:43:27;15.90;1.00
15969;DHT22;8085;53.472;9.794;2023-05-15T06:45:55;16.00;1.00
15969;DHT22;8085;53.472;9.794;2023-05-15T06:48:22;16.10;1.00
15969;DHT22;8085;53.472;9.794;2023-05-15T06:50:49;16.20;1.00
15969;DHT22;8085;53.472;9.794;2023-05-15T06:53:16;16.30;1.00
15969;DHT22;8085;53.472;9.794;2023-05-15T06:55:43;16.50;1.00
15969;DHT22;8085;53.472;9.794;2023-05-15T06:58:12;16.50;1.00
15969;DHT22;8085;53.472;9.794;2023-05-15T07:00:39;16.60;1.00
15969;DHT22;8085;53.472;9.794;2023-05-15T07:03:07;16.60;1.00
15969;DHT22;8085;53.472;9.794;2023-05-15T07:05:34;16.70;1.00
15969;DHT22;8085;53.472;9.794;2023-05-15T07:08:01;17.00;1.00
15969;DHT22;8085;53.472;9.794;2023-05-15T07:10:28;17.10;1.00
15969;DHT22;8085;53.472;9.794;2023-05-15T07:12:54;17.10;99.90
15969;DHT22;8085;53.472;9.794;2023-05-15T07:15:21;17.20;99.90
15969;DHT22;8085;53.472;9.794;2023-05-15T07:17:48;17.20;1.00
15969;DHT22;8085;53.472;9.794;2023-05-15T07:20:17;17.30;1.00
15969;DHT22;8085;53.472;9.794;2023-05-15T07:22:43;17.50;1.00
15969;DHT22;8085;53.472;9.794;2023-05-15T07:25:10;17.70;99.90
15969;DHT22;8085;53.472;9.794;2023-05-15T07:27:38;17.90;99.90
15969;DHT22;8085;53.472;9.794;2023-05-15T07:30:06;18.20;37.40
15969;DHT22;8085;53.472;9.794;2023-05-15T07:32:33;18.30;26.50
15969;DHT22;8085;53.472;9.794;2023-05-15T07:35:00;18.30;1.00
15969;DHT22;8085;53.472;9.794;2023-05-15T07:37:30;18.20;1.00
15969;DHT22;8085;53.472;9.794;2023-05-15T07:39:57;18.20;99.90
15969;DHT22;8085;53.472;9.794;2023-05-15T07:42:24;18.40;1.00
15969;DHT22;8085;53.472;9.794;2023-05-15T07:44:51;18.50;99.90
15969;DHT22;8085;53.472;9.794;2023-05-15T07:47:18;18.90;1.00
15969;DHT22;8085;53.472;9.794;2023-05-15T07:49:45;19.00;99.90
15969;DHT22;8085;53.472;9.794;2023-05-15T07:52:11;18.90;99.90
15969;DHT22;8085;53.472;9.794;2023-05-15T07:54:40;19.30;1.00
15969;DHT22;8085;53.472;9.794;2023-05-15T07:57:07;19.50;1.00
15969;DHT22;8085;53.472;9.794;2023-05-15T07:59:34;19.80;1.00
15969;DHT22;8085;53.472;9.794;2023-05-15T08:02:01;20.10;1.00
15969;DHT22;8085;53.472;9.794;2023-05-15T08:04:28;20.30;1.00
15969;DHT22;8085;53.472;9.794;2023-05-15T08:06:55;20.50;99.90
15969;DHT22;8085;53.472;9.794;2023-05-15T08:09:22;20.70;1.00
15969;DHT22;8085;53.472;9.794;2023-05-15T08:11:50;20.90;99.90
15969;DHT22;8085;53.472;9.794;2023-05-15T08:14:17;21.10;99.90
15969;DHT22;8085;53.472;9.794;2023-05-15T08:16:44;21.20;99.90
15969;DHT22;8085;53.472;9.794;2023-05-15T08:19:11;21.40;1.00
15969;DHT22;8085;53.472;9.794;2023-05-15T08:21:38;21.50;1.00
15969;DHT22;8085;53.472;9.794;2023-05-15T08:24:05;21.70;1.00
15969;DHT22;8085;53.472;9.794;2023-05-15T08:26:32;21.90;1.00
15969;DHT22;8085;53.472;9.794;2023-05-15T08:29:01;22.10;1.00
15969;DHT22;8085;53.472;9.794;2023-05-15T08:31:28;22.20;99.90
15969;DHT22;8085;53.472;9.794;2023-05-15T08:33:55;22.40;99.90
15969;DHT22;8085;53.472;9.794;2023-05-15T08:36:21;22.50;99.90
15969;DHT22;8085;53.472;9.794;2023-05-15T08:38:59;22.20;99.90
15969;DHT22;8085;53.472;9.794;2023-05-15T08:41:31;22.40;99.90
15969;DHT22;8085;53.472;9.794;2023-05-15T08:44:01;22.70;99.90
15969;DHT22;8085;53.472;9.794;2023-05-15T08:46:29;23.00;99.90
15969;DHT22;8085;53.472;9.794;2023-05-15T08:48:57;23.00;99.90
15969;DHT22;8085;53.472;9.794;2023-05-15T08:51:25;23.10;99.90
15969;DHT22;8085;53.472;9.794;2023-05-15T08:53:52;22.80;99.90
15969;DHT22;8085;53.472;9.794;2023-05-15T08:56:19;23.20;99.90
15969;DHT22;8085;53.472;9.794;2023-05-15T08:58:46;23.50;99.90
15969;DHT22;8085;53.472;9.794;2023-05-15T09:01:15;23.40;99.90
15969;DHT22;8085;53.472;9.794;2023-05-15T09:03:42;23.50;99.90
15969;DHT22;8085;53.472;9.794;2023-05-15T09:06:09;23.90;99.90
15969;DHT22;8085;53.472;9.794;2023-05-15T09:08:36;24.00;99.90
15969;DHT22;8085;53.472;9.794;2023-05-15T09:11:04;24.10;99.90
15969;DHT22;8085;53.472;9.794;2023-05-15T09:13:32;23.90;99.90
15969;DHT22;8085;53.472;9.794;2023-05-15T09:15:59;23.70;99.90
15969;DHT22;8085;53.472;9.794;2023-05-15T09:18:27;23.90;99.90
15969;DHT22;8085;53.472;9.794;2023-05-15T09:20:55;24.10;99.90
15969;DHT22;8085;53.472;9.794;2023-05-15T09:23:23;24.20;99.90
15969;DHT22;8085;53.472;9.794;2023-05-15T09:25:52;24.50;99.90
15969;DHT22;8085;53.472;9.794;2023-05-15T09:28:27;24.70;99.90
15969;DHT22;8085;53.472;9.794;2023-05-15T09:30:59;24.70;99.90
15969;DHT22;8085;53.472;9.794;2023-05-15T09:33:32;24.50;99.90
15969;DHT22;8085;53.472;9.794;2023-05-15T09:35:59;24.40;99.90
15969;DHT22;8085;53.472;9.794;2023-05-15T09:38:27;24.40;99.90
15969;DHT22;8085;53.472;9.794;2023-05-15T09:41:03;24.40;99.90
15969;DHT22;8085;53.472;9.794;2023-05-15T09:43:36;24.90;99.90
15969;DHT22;8085;53.472;9.794;2023-05-15T09:46:04;25.10;99.90
15969;DHT22;8085;53.472;9.794;2023-05-15T09:48:33;25.00;99.90
15969;DHT22;8085;53.472;9.794;2023-05-15T09:51:01;25.20;99.90
15969;DHT22;8085;53.472;9.794;2023-05-15T09:53:30;25.00;99.90
15969;DHT22;8085;53.472;9.794;2023-05-15T09:55:57;25.10;99.90
15969;DHT22;8085;53.472;9.794;2023-05-15T09:58:24;25.20;99.90
15969;DHT22;8085;53.472;9.794;2023-05-15T10:00:51;25.00;99.90
15969;DHT22;8085;53.472;9.794;2023-05-15T10:03:18;25.10;99.90
15969;DHT22;8085;53.472;9.794;2023-05-15T10:05:47;24.90;99.90
15969;DHT22;8085;53.472;9.794;2023-05-15T10:08:15;24.80;99.90
15969;DHT22;8085;53.472;9.794;2023-05-15T10:10:42;25.00;99.90
15969;DHT22;8085;53.472;9.794;2023-05-15T10:13:10;25.10;99.90
15969;DHT22;8085;53.472;9.794;2023-05-15T10:15:38;25.40;99.90
15969;DHT22;8085;53.472;9.794;2023-05-15T10:18:05;25.60;99.90
15969;DHT22;8085;53.472;9.794;2023-05-15T10:20:36;25.60;99.90
15969;DHT22;8085;53.472;9.794;2023-05-15T10:23:09;25.50;99.90
15969;DHT22;8085;53.472;9.794;2023-05-15T10:25:44;25.70;99.90
15969;DHT22;8085;53.472;9.794;2023-05-15T10:28:13;25.70;99.90
15969;DHT22;8085;53.472;9.794;2023-05-15T10:30:41;25.60;99.90
15969;DHT22;8085;53.472;9.794;2023-05-15T10:33:10;25.40;99.90
15969;DHT22;8085;53.472;9.794;2023-05-15T10:35:38;24.90;99.90
15969;DHT22;8085;53.472;9.794;2023-05-15T10:38:07;24.90;99.90
15969;DHT22;8085;53.472;9.794;2023-05-15T10:40:36;25.10;99.90
15969;DHT22;8085;53.472;9.794;2023-05-15T10:43:04;25.20;99.90
15969;DHT22;8085;53.472;9.794;2023-05-15T10:45:32;25.50;99.90
15969;DHT22;8085;53.472;9.794;2023-05-15T10:48:01;25.40;99.90
15969;DHT22;8085;53.472;9.794;2023-05-15T10:50:32;25.50;99.90
15969;DHT22;8085;53.472;9.794;2023-05-15T10:52:59;25.70;99.90
15969;DHT22;8085;53.472;9.794;2023-05-15T10:55:29;25.60;99.90
15969;DHT22;8085;53.472;9.794;2023-05-15T10:57:57;25.10;99.90
15969;DHT22;8085;53.472;9.794;2023-05-15T11:00:25;25.20;99.90
15969;DHT22;8085;53.472;9.794;2023-05-15T11:02:53;25.60;99.90
15969;DHT22;8085;53.472;9.794;2023-05-15T11:05:22;25.50;99.90
15969;DHT22;8085;53.472;9.794;2023-05-15T11:08:23;25.60;99.90
15969;DHT22;8085;53.472;9.794;2023-05-15T11:10:53;25.90;99.90
15969;DHT22;8085;53.472;9.794;2023-05-15T11:13:20;26.00;99.40
15969;DHT22;8085;53.472;9.794;2023-05-15T11:15:47;26.00;99.90
15969;DHT22;8085;53.472;9.794;2023-05-15T11:18:15;26.10;99.90
15969;DHT22;8085;53.472;9.794;2023-05-15T11:23:24;26.20;99.90
15969;DHT22;8085;53.472;9.794;2023-05-15T11:25:55;26.20;99.70
15969;DHT22;8085;53.472;9.794;2023-05-15T11:28:24;26.30;99.90
15969;DHT22;8085;53.472;9.794;2023-05-15T11:30:58;26.30;99.90
15969;DHT22;8085;53.472;9.794;2023-05-15T11:33:28;26.10;99.90
15969;DHT22;8085;53.472;9.794;2023-05-15T11:35:57;26.00;99.90
15969;DHT22;8085;53.472;9.794;2023-05-15T11:38:25;26.00;99.90
15969;DHT22;8085;53.472;9.794;2023-05-15T11:40:54;26.00;99.90
15969;DHT22;8085;53.472;9.794;2023-05-15T11:43:24;26.20;99.90
15969;DHT22;8085;53.472;9.794;2023-05-15T11:45:52;26.10;99.80
15969;DHT22;8085;53.472;9.794;2023-05-15T11:48:22;26.20;99.90
15969;DHT22;8085;53.472;9.794;2023-05-15T11:50:49;26.30;99.20
15969;DHT22;8085;53.472;9.794;2023-05-15T11:53:18;26.20;99.60
15969;DHT22;8085;53.472;9.794;2023-05-15T11:55:45;26.30;99.00
15969;DHT22;8085;53.472;9.794;2023-05-15T11:58:15;26.70;99.40
15969;DHT22;8085;53.472;9.794;2023-05-15T12:00:45;26.80;99.90
15969;DHT22;8085;53.472;9.794;2023-05-15T12:03:16;26.90;98.90
15969;DHT22;8085;53.472;9.794;2023-05-15T12:05:44;26.30;94.60
15969;DHT22;8085;53.472;9.794;2023-05-15T12:08:12;25.60;91.90
15969;DHT22;8085;53.472;9.794;2023-05-15T12:10:39;24.60;90.90
15969;DHT22;8085;53.472;9.794;2023-05-15T12:13:07;24.30;95.90
15969;DHT22;8085;53.472;9.794;2023-05-15T12:15:37;24.00;99.10
15969;DHT22;8085;53.472;9.794;2023-05-15T12:18:05;23.50;99.90
15969;DHT22;8085;53.472;9.794;2023-05-15T12:20:34;23.40;99.90
15969;DHT22;8085;53.472;9.794;2023-05-15T12:23:02;23.20;99.90
15969;DHT22;8085;53.472;9.794;2023-05-15T12:25:30;23.10;99.90
15969;DHT22;8085;53.472;9.794;2023-05-15T12:27:58;23.10;99.90
15969;DHT22;8085;53.472;9.794;2023-05-15T12:30:26;22.90;99.90
15969;DHT22;8085;53.472;9.794;2023-05-15T12:32:59;22.60;99.90
15969;DHT22;8085;53.472;9.794;2023-05-15T12:35:26;22.70;99.90
15969;DHT22;8085;53.472;9.794;2023-05-15T12:37:54;22.50;99.90
15969;DHT22;8085;53.472;9.794;2023-05-15T12:40:21;22.50;99.90
15969;DHT22;8085;53.472;9.794;2023-05-15T12:42:51;22.40;99.90
15969;DHT22;8085;53.472;9.794;2023-05-15T12:45:19;22.30;99.90
15969;DHT22;8085;53.472;9.794;2023-05-15T12:47:48;22.30;99.90
15969;DHT22;8085;53.472;9.794;2023-05-15T12:50:17;22.20;99.90
15969;DHT22;8085;53.472;9.794;2023-05-15T12:52:51;22.10;99.90
15969;DHT22;8085;53.472;9.794;2023-05-15T12:55:23;22.00;99.90
15969;DHT22;8085;53.472;9.794;2023-05-15T12:57:50;21.90;99.90
15969;DHT22;8085;53.472;9.794;2023-05-15T13:00:19;21.90;99.90
15969;DHT22;8085;53.472;9.794;2023-05-15T13:02:48;21.80;99.90
15969;DHT22;8085;53.472;9.794;2023-05-15T13:05:17;21.70;99.90
15969;DHT22;8085;53.472;9.794;2023-05-15T13:07:44;21.60;99.90
15969;DHT22;8085;53.472;9.794;2023-05-15T13:10:12;21.30;99.90
15969;DHT22;8085;53.472;9.794;2023-05-15T13:12:41;21.50;99.90
15969;DHT22;8085;53.472;9.794;2023-05-15T13:15:22;21.50;99.90
15969;DHT22;8085;53.472;9.794;2023-05-15T13:17:52;21.50;99.90
15969;DHT22;8085;53.472;9.794;2023-05-15T13:20:22;21.50;99.90
15969;DHT22;8085;53.472;9.794;2023-05-15T13:22:49;21.50;99.90
15969;DHT22;8085;53.472;9.794;2023-05-15T13:25:17;21.40;99.90
15969;DHT22;8085;53.472;9.794;2023-05-15T13:27:44;21.50;99.90
15969;DHT22;8085;53.472;9.794;2023-05-15T13:30:12;21.40;99.90
15969;DHT22;8085;53.472;9.794;2023-05-15T13:32:39;21.60;99.90
15969;DHT22;8085;53.472;9.794;2023-05-15T13:35:06;21.50;99.90
15969;DHT22;8085;53.472;9.794;2023-05-15T13:37:36;21.50;99.90
15969;DHT22;8085;53.472;9.794;2023-05-15T13:40:04;21.40;99.90
15969;DHT22;8085;53.472;9.794;2023-05-15T13:42:34;21.20;99.90
15969;DHT22;8085;53.472;9.794;2023-05-15T13:45:02;21.10;99.90
15969;DHT22;8085;53.472;9.794;2023-05-15T13:47:29;21.10;99.90
15969;DHT22;8085;53.472;9.794;2023-05-15T13:49:56;21.20;99.90
15969;DHT22;8085;53.472;9.794;2023-05-15T13:52:24;21.60;99.90
15969;DHT22;8085;53.472;9.794;2023-05-15T13:54:52;22.20;99.90
15969;DHT22;8085;53.472;9.794;2023-05-15T13:57:20;22.80;99.90
15969;DHT22;8085;53.472;9.794;2023-05-15T13:59:47;22.70;99.90
15969;DHT22;8085;53.472;9.794;2023-05-15T14:02:14;22.90;99.90
15969;DHT22;8085;53.472;9.794;2023-05-15T14:04:41;23.20;99.90
15969;DHT22;8085;53.472;9.794;2023-05-15T14:07:08;23.30;99.90
15969;DHT22;8085;53.472;9.794;2023-05-15T14:09:35;23.20;99.90
15969;DHT22;8085;53.472;9.794;2023-05-15T14:12:05;22.60;99.90
15969;DHT22;8085;53.472;9.794;2023-05-15T14:14:31;22.30;99.90
15969;DHT22;8085;53.472;9.794;2023-05-15T14:16:58;22.20;99.90
15969;DHT22;8085;53.472;9.794;2023-05-15T14:19:25;22.20;99.90
15969;DHT22;8085;53.472;9.794;2023-05-15T14:21:52;22.20;99.90
15969;DHT22;8085;53.472;9.794;2023-05-15T14:24:19;22.00;99.90
15969;DHT22;8085;53.472;9.794;2023-05-15T14:26:46;21.90;99.90
15969;DHT22;8085;53.472;9.794;2023-05-15T14:29:14;21.50;99.90
15969;DHT22;8085;53.472;9.794;2023-05-15T14:31:41;21.50;99.90
15969;DHT22;8085;53.472;9.794;2023-05-15T14:34:08;21.70;99.90
15969;DHT22;8085;53.472;9.794;2023-05-15T14:36:36;21.30;99.90
15969;DHT22;8085;53.472;9.794;2023-05-15T14:39:03;21.30;99.90
15969;DHT22;8085;53.472;9.794;2023-05-15T14:41:31;21.40;99.90
15969;DHT22;8085;53.472;9.794;2023-05-15T14:43:58;21.50;99.90
15969;DHT22;8085;53.472;9.794;2023-05-15T14:46:29;21.50;99.90
15969;DHT22;8085;53.472;9.794;2023-05-15T14:48:56;21.80;99.90
15969;DHT22;8085;53.472;9.794;2023-05-15T14:51:23;21.60;99.90
15969;DHT22;8085;53.472;9.794;2023-05-15T14:53:50;21.50;99.90
15969;DHT22;8085;53.472;9.794;2023-05-15T14:56:17;21.40;99.90
15969;DHT22;8085;53.472;9.794;2023-05-15T14:58:47;21.50;99.90
15969;DHT22;8085;53.472;9.794;2023-05-15T15:01:14;21.60;99.90
15969;DHT22;8085;53.472;9.794;2023-05-15T15:03:42;21.30;99.90
15969;DHT22;8085;53.472;9.794;2023-05-15T15:06:12;21.10;99.90
15969;DHT22;8085;53.472;9.794;2023-05-15T15:08:39;21.10;99.90
15969;DHT22;8085;53.472;9.794;2023-05-15T15:11:06;20.80;99.90
15969;DHT22;8085;53.472;9.794;2023-05-15T15:13:36;21.00;99.90
15969;DHT22;8085;53.472;9.794;2023-05-15T15:16:06;21.00;99.90
15969;DHT22;8085;53.472;9.794;2023-05-15T15:18:34;20.90;99.90
15969;DHT22;8085;53.472;9.794;2023-05-15T15:21:02;20.50;99.90
15969;DHT22;8085;53.472;9.794;2023-05-15T15:23:29;20.60;99.90
15969;DHT22;8085;53.472;9.794;2023-05-15T15:25:56;20.50;99.90
15969;DHT22;8085;53.472;9.794;2023-05-15T15:28:23;20.40;99.90
15969;DHT22;8085;53.472;9.794;2023-05-15T15:30:50;20.20;99.90
15969;DHT22;8085;53.472;9.794;2023-05-15T15:33:17;20.00;99.90
15969;DHT22;8085;53.472;9.794;2023-05-15T15:35:44;19.90;99.90
15969;DHT22;8085;53.472;9.794;2023-05-15T15:38:12;19.60;99.90
15969;DHT22;8085;53.472;9.794;2023-05-15T15:40:39;19.60;99.90
15969;DHT22;8085;53.472;9.794;2023-05-15T15:43:06;19.50;99.90
15969;DHT22;8085;53.472;9.794;2023-05-15T15:45:33;19.50;99.90
15969;DHT22;8085;53.472;9.794;2023-05-15T15:48:03;19.80;99.90
15969;DHT22;8085;53.472;9.794;2023-05-15T15:50:30;19.60;99.90
15969;DHT22;8085;53.472;9.794;2023-05-15T15:52:57;19.50;99.90
15969;DHT22;8085;53.472;9.794;2023-05-15T15:55:25;19.30;99.90
15969;DHT22;8085;53.472;9.794;2023-05-15T15:57:52;19.30;99.90
15969;DHT22;8085;53.472;9.794;2023-05-15T16:00:19;19.40;99.90